Terminal Aerodrome Forecast
Issued by NWS Norman, OK

Home | Current Version | Previous Version | Text Only | Print | Product List | Glossary On
Versions: 1 2 3 4 5 6 7 8 9 10 11 12 13 14 15 16 17 18 19 20 21 22 23 24 25 26 27 28 29 30
000
FTUS44 KOUN 310240 AAA
TAFSPS
TAF AMD
KSPS 310240Z 3103/3124 36012G20KT P6SM FEW025 BKN060
     FM310600 02012KT P6SM SCT009 OVC020
     FM311600 01014KT P6SM OVC035=

USA.gov is the U.S. government's official web portal to all federal, state and local government web resources and services.